Larvik — C6VC2 — position and weather

sailwx.info

Track history (hours):
 
Tides and Currents Weather Stations Pressure Air Temp Water Temp Dewpoint Dewpoint Depression Visibility Wind Speed Wind Dir Waves Ship Positions

Larvik

Last reported at 2018-Apr-27 04:27 UTC. Time now 2018-Apr-27 08:43 UTC.
Position N 28°43' W 094°25'.

Length 214 m; draft 10.1 m.

Type: Ship (hazmat cat D). MMSI: 308371000.

Date/timePositionNaut miles runAvg speedWind from/ knotsBaromVisibWave heightAir tempDewpointWater temp
2018-Apr-27 04:27N 28°43' W 094°25'613.3
2018-Apr-27 03:59N 28°49' W 094°25'713.0
2018-Apr-27 03:26N 28°56' W 094°25'612.6
2018-Apr-27 03:00N 29°02' W 094°25'611.8
2018-Apr-27 02:29N 29°08' W 094°27'712.7
2018-Apr-27 01:59N 29°13' W 094°32'611.9
2018-Apr-27 01:30N 29°17' W 094°36'610.7
2018-Apr-27 00:59N 29°20' W 094°41'511.1
2018-Apr-27 00:30N 29°21' W 094°47'510.5
2018-Apr-27 00:01N 29°26' W 094°50'5 9.9
2018-Apr-26 23:31N 29°30' W 094°52'5 9.9
2018-Apr-26 23:00N 29°34' W 094°56'5 9.9
2018-Apr-26 22:30N 29°39' W 094°58'4 7.9
2018-Apr-26 22:01N 29°42' W 095°01'3 6.4
2018-Apr-26 21:30N 29°44' W 095°03'2 4.3
2018-Apr-26 21:00N 29°45' W 095°06'0 0.0
2018-Apr-25 14:20N 29°45' W 095°06'0 0.0
2018-Apr-25 13:26N 29°45' W 095°06'0 0.0
2018-Apr-25 12:59N 29°45' W 095°06'0 0.0
2018-Apr-25 12:20N 29°45' W 095°06'0 0.0
2018-Apr-25 11:53N 29°45' W 095°06'0 0.0
2018-Apr-24 22:32N 29°45' W 095°06'0 0.2
2018-Apr-24 22:30N 29°45' W 095°06'0 0.0
2018-Apr-24 22:00N 29°45' W 095°06'2 4.3
2018-Apr-24 21:30N 29°44' W 095°03'4 7.5
2018-Apr-24 21:00N 29°42' W 095°00'510.5
2018-Apr-24 20:30N 29°37' W 094°58'611.9
2018-Apr-24 20:00N 29°32' W 094°54'713.3
2018-Apr-24 19:30N 29°26' W 094°50'20 6.4
2018-Apr-24 16:22N 29°14' W 094°32'1 3.5
2018-Apr-24 16:00N 29°14' W 094°34'4 6.6
2018-Apr-24 15:20N 29°10' W 094°37'0 0.4
2018-Apr-24 14:53N 29°10' W 094°37'0 0.1
2018-Apr-24 13:56N 29°10' W 094°37'1 1.7
2018-Apr-24 13:30N 29°10' W 094°37'7 9.8
2018-Apr-24 12:47N 29°03' W 094°36'311.0
2018-Apr-24 12:30N 29°00' W 094°39'713.1
2018-Apr-24 11:56N 28°56' W 094°46'713.2
2018-Apr-24 11:24N 28°52' W 094°52'713.3
2018-Apr-24 10:51N 28°48' W 094°59'1013.3
2018-Apr-24 10:05N 28°43' W 095°09'313.6
2018-Apr-24 09:53N 28°41' W 095°11'1313.6
2018-Apr-24 08:55N 28°34' W 095°24'  
Track history (hours):
 
Tides and Currents Weather Stations Pressure Air Temp Water Temp Dewpoint Dewpoint Depression Visibility Wind Speed Wind Dir Waves Ship Positions

Larvik

Last reported at 2018-Apr-27 04:27 UTC. Time now 2018-Apr-27 08:43 UTC.
Position N 28°43' W 094°25'.

Length 214 m; draft 10.1 m.

Type: Ship (hazmat cat D). MMSI: 308371000.

Date/timePositionNaut miles runAvg speedWind from/ knotsBaromVisibWave heightAir tempDewpointWater temp
2018-Apr-27 04:27N 28°43' W 094°25'613.3
2018-Apr-27 03:59N 28°49' W 094°25'713.0
2018-Apr-27 03:26N 28°56' W 094°25'612.6
2018-Apr-27 03:00N 29°02' W 094°25'611.8
2018-Apr-27 02:29N 29°08' W 094°27'712.7
2018-Apr-27 01:59N 29°13' W 094°32'611.9
2018-Apr-27 01:30N 29°17' W 094°36'610.7
2018-Apr-27 00:59N 29°20' W 094°41'511.1
2018-Apr-27 00:30N 29°21' W 094°47'510.5
2018-Apr-27 00:01N 29°26' W 094°50'5 9.9
2018-Apr-26 23:31N 29°30' W 094°52'5 9.9
2018-Apr-26 23:00N 29°34' W 094°56'5 9.9
2018-Apr-26 22:30N 29°39' W 094°58'4 7.9
2018-Apr-26 22:01N 29°42' W 095°01'3 6.4
2018-Apr-26 21:30N 29°44' W 095°03'2 4.3
2018-Apr-26 21:00N 29°45' W 095°06'0 0.0
2018-Apr-25 14:20N 29°45' W 095°06'0 0.0
2018-Apr-25 13:26N 29°45' W 095°06'0 0.0
2018-Apr-25 12:59N 29°45' W 095°06'0 0.0
2018-Apr-25 12:20N 29°45' W 095°06'0 0.0
2018-Apr-25 11:53N 29°45' W 095°06'0 0.0
2018-Apr-24 22:32N 29°45' W 095°06'0 0.2
2018-Apr-24 22:30N 29°45' W 095°06'0 0.0
2018-Apr-24 22:00N 29°45' W 095°06'2 4.3
2018-Apr-24 21:30N 29°44' W 095°03'4 7.5
2018-Apr-24 21:00N 29°42' W 095°00'510.5
2018-Apr-24 20:30N 29°37' W 094°58'611.9
2018-Apr-24 20:00N 29°32' W 094°54'713.3
2018-Apr-24 19:30N 29°26' W 094°50'20 6.4
2018-Apr-24 16:22N 29°14' W 094°32'1 3.5
2018-Apr-24 16:00N 29°14' W 094°34'4 6.6
2018-Apr-24 15:20N 29°10' W 094°37'0 0.4
2018-Apr-24 14:53N 29°10' W 094°37'0 0.1
2018-Apr-24 13:56N 29°10' W 094°37'1 1.7
2018-Apr-24 13:30N 29°10' W 094°37'7 9.8
2018-Apr-24 12:47N 29°03' W 094°36'311.0
2018-Apr-24 12:30N 29°00' W 094°39'713.1
2018-Apr-24 11:56N 28°56' W 094°46'713.2
2018-Apr-24 11:24N 28°52' W 094°52'713.3
2018-Apr-24 10:51N 28°48' W 094°59'1013.3
2018-Apr-24 10:05N 28°43' W 095°09'313.6
2018-Apr-24 09:53N 28°41' W 095°11'1313.6
2018-Apr-24 08:55N 28°34' W 095°24'  

Dump ship's entire track history